createdAt,value
2023-02-15T00:00:48.533Z,1.27
2023-02-15T00:03:18.523Z,1.73
2023-02-15T00:05:46.930Z,1.65
2023-02-15T00:08:15.322Z,1.52
2023-02-15T00:10:43.758Z,1.38
2023-02-15T00:13:13.562Z,1.63
2023-02-15T00:15:42.058Z,1.45
2023-02-15T00:18:10.529Z,1.10
2023-02-15T00:20:38.980Z,0.93
2023-02-15T00:23:07.398Z,0.68
2023-02-15T00:25:35.813Z,1.13
2023-02-15T00:28:04.287Z,1.33
2023-02-15T00:30:34.338Z,1.08
2023-02-15T00:33:03.014Z,1.60
2023-02-15T00:35:31.427Z,1.15
2023-02-15T00:37:59.920Z,1.50
2023-02-15T00:40:28.519Z,1.95
2023-02-15T00:42:57.368Z,1.95
2023-02-15T00:45:25.733Z,2.67
2023-02-15T00:47:55.725Z,3.25
2023-02-15T00:50:24.292Z,3.60
2023-02-15T00:52:52.781Z,3.00
2023-02-15T00:55:21.968Z,3.30
2023-02-15T00:57:51.547Z,4.20
2023-02-15T01:00:20.268Z,4.00
2023-02-15T01:02:48.839Z,4.93
2023-02-15T01:05:19.011Z,4.22
2023-02-15T01:07:47.481Z,4.60
2023-02-15T01:10:15.904Z,3.83
2023-02-15T01:12:44.666Z,3.85
2023-02-15T01:15:13.044Z,4.28
2023-02-15T01:17:41.624Z,4.57
2023-02-15T01:20:10.573Z,3.90
2023-02-15T01:22:40.507Z,3.38
2023-02-15T01:25:09.489Z,3.90
2023-02-15T01:27:37.955Z,3.03
2023-02-15T01:30:10.186Z,3.47
2023-02-15T01:32:38.881Z,2.83
2023-02-15T01:35:08.274Z,2.90
2023-02-15T01:37:37.509Z,2.95
2023-02-15T01:40:11.002Z,2.95
2023-02-15T01:42:39.584Z,3.05
2023-02-15T01:45:21.943Z,2.78
2023-02-15T01:47:55.554Z,2.13
2023-02-15T01:50:29.878Z,2.50
2023-02-15T01:53:03.531Z,2.65
2023-02-15T01:55:37.216Z,2.03
2023-02-15T01:58:05.996Z,2.00
2023-02-15T02:00:35.527Z,2.35
2023-02-15T02:03:05.606Z,2.75
2023-02-15T02:05:35.446Z,2.60
2023-02-15T02:08:05.339Z,2.60
2023-02-15T02:10:35.532Z,2.00
2023-02-15T02:13:07.336Z,1.90
2023-02-15T02:15:44.982Z,2.53
2023-02-15T02:18:34.281Z,1.92
2023-02-15T02:21:37.359Z,1.90
2023-02-15T02:24:32.331Z,2.17
2023-02-15T02:27:35.511Z,2.10
2023-02-15T02:30:29.259Z,1.90
2023-02-15T02:33:29.291Z,1.75
2023-02-15T02:36:08.786Z,2.30
2023-02-15T02:38:48.209Z,2.30
2023-02-15T02:41:23.758Z,1.65
2023-02-15T02:43:57.370Z,1.77
2023-02-15T02:46:32.735Z,1.83
2023-02-15T02:49:03.626Z,1.75
2023-02-15T02:51:33.071Z,1.50
2023-02-15T02:54:06.799Z,2.58
2023-02-15T02:56:39.757Z,2.33
2023-02-15T02:59:15.288Z,2.22
2023-02-15T03:01:49.098Z,2.45
2023-02-15T03:04:23.975Z,2.47
2023-02-15T03:06:57.969Z,2.78
2023-02-15T03:09:42.982Z,2.50
2023-02-15T03:12:16.376Z,2.00
2023-02-15T03:14:51.179Z,2.70
2023-02-15T03:17:22.205Z,2.28
2023-02-15T03:20:00.093Z,2.65
2023-02-15T03:22:36.927Z,2.75
2023-02-15T03:25:11.470Z,2.97
2023-02-15T03:27:44.173Z,3.42
2023-02-15T03:30:15.717Z,3.88
2023-02-15T03:32:47.074Z,4.78
2023-02-15T03:35:17.256Z,4.75
2023-02-15T03:37:51.366Z,5.47
2023-02-15T03:40:42.926Z,5.25
2023-02-15T03:43:18.412Z,6.55
2023-02-15T03:45:56.773Z,5.85
2023-02-15T03:48:29.802Z,6.53
2023-02-15T03:51:21.195Z,6.22
2023-02-15T03:56:19.320Z,6.88
2023-02-15T03:59:05.266Z,6.10
2023-02-15T04:04:41.396Z,7.07
2023-02-15T04:07:12.168Z,7.22
2023-02-15T04:09:58.440Z,6.80
2023-02-15T04:12:27.141Z,7.80
2023-02-15T04:15:13.353Z,6.75
2023-02-15T04:17:42.086Z,7.35
2023-02-15T04:20:29.998Z,6.57
2023-02-15T04:23:16.169Z,6.72
2023-02-15T04:25:44.900Z,5.97
2023-02-15T04:28:13.526Z,5.68
2023-02-15T04:30:42.390Z,5.70
2023-02-15T04:33:11.526Z,6.25
2023-02-15T04:35:42.667Z,5.25
2023-02-15T04:38:14.401Z,5.65
2023-02-15T04:40:42.906Z,4.57
2023-02-15T04:43:11.686Z,4.88
2023-02-15T04:45:40.293Z,5.30
2023-02-15T04:48:09.206Z,4.53
2023-02-15T04:50:37.916Z,4.07
2023-02-15T04:53:08.482Z,4.53
2023-02-15T04:55:37.163Z,3.95
2023-02-15T04:58:05.807Z,4.20
2023-02-15T05:00:34.552Z,4.20
2023-02-15T05:03:03.384Z,4.38
2023-02-15T05:05:31.972Z,4.28
2023-02-15T05:08:00.674Z,4.38
2023-02-15T05:10:31.251Z,5.22
2023-02-15T05:13:00.364Z,4.03
2023-02-15T05:15:29.129Z,3.80
2023-02-15T05:17:58.028Z,3.55
2023-02-15T05:20:26.867Z,4.07
2023-02-15T05:22:56.365Z,4.55
2023-02-15T05:25:42.630Z,4.53
2023-02-15T05:28:24.992Z,4.75
2023-02-15T05:31:03.613Z,4.63
2023-02-15T05:33:32.543Z,4.43
2023-02-15T05:36:05.168Z,3.92
2023-02-15T05:38:34.413Z,3.58
2023-02-15T05:41:03.190Z,3.58
2023-02-15T05:43:33.793Z,3.30
2023-02-15T05:46:03.524Z,4.30
2023-02-15T05:48:32.509Z,3.80
2023-02-15T05:51:02.370Z,2.85
2023-02-15T05:53:33.428Z,3.35
2023-02-15T05:58:35.864Z,3.35
2023-02-15T06:01:11.090Z,3.33
2023-02-15T06:03:40.137Z,2.83
2023-02-15T06:06:09.389Z,3.20
2023-02-15T06:08:39.195Z,3.38
2023-02-15T06:11:08.245Z,3.72
2023-02-15T06:13:39.049Z,2.85
2023-02-15T06:16:08.138Z,3.60
2023-02-15T06:18:39.822Z,3.53
2023-02-15T06:21:08.626Z,3.88
2023-02-15T06:23:37.428Z,3.20
2023-02-15T06:26:06.130Z,3.92
2023-02-15T06:28:35.320Z,3.97
2023-02-15T06:31:05.682Z,3.58
2023-02-15T06:33:35.119Z,4.30
2023-02-15T06:36:04.989Z,4.28
2023-02-15T06:38:33.804Z,3.88
2023-02-15T06:41:02.592Z,3.42
2023-02-15T06:43:31.380Z,4.10
2023-02-15T06:46:00.711Z,3.97
2023-02-15T06:48:33.991Z,4.68
2023-02-15T06:51:02.806Z,3.70
2023-02-15T06:53:32.671Z,3.63
2023-02-15T06:56:07.870Z,3.60
2023-02-15T06:58:36.517Z,3.50
2023-02-15T07:01:06.278Z,4.10
2023-02-15T07:03:37.264Z,2.95
2023-02-15T07:08:39.546Z,2.88
2023-02-15T07:11:26.661Z,4.40
2023-02-15T07:13:55.303Z,4.45
2023-02-15T07:16:24.032Z,3.70
2023-02-15T07:18:54.143Z,3.97
2023-02-15T07:21:22.926Z,4.40
2023-02-15T07:23:52.458Z,4.60
2023-02-15T07:26:21.220Z,4.18
2023-02-15T07:28:50.257Z,5.63
2023-02-15T07:31:19.079Z,5.05
2023-02-15T07:33:47.819Z,4.47
2023-02-15T07:36:17.938Z,4.38
2023-02-15T07:38:46.605Z,3.85
2023-02-15T07:41:17.108Z,4.03
2023-02-15T07:43:47.267Z,4.65
2023-02-15T07:46:17.970Z,4.72
2023-02-15T07:48:47.004Z,4.57
2023-02-15T07:51:18.006Z,4.53
2023-02-15T07:53:46.975Z,5.00
2023-02-15T07:56:16.559Z,5.45
2023-02-15T07:58:59.321Z,4.10
2023-02-15T08:01:30.433Z,4.38
2023-02-15T08:06:31.490Z,4.80
2023-02-15T08:09:00.304Z,4.10
2023-02-15T08:11:37.804Z,4.78
2023-02-15T08:14:08.404Z,4.88
2023-02-15T08:16:39.167Z,5.75
2023-02-15T08:19:10.431Z,4.35
2023-02-15T08:21:42.566Z,6.70
2023-02-15T08:24:12.907Z,6.28
2023-02-15T08:26:42.606Z,6.63
2023-02-15T08:29:11.554Z,7.18
2023-02-15T08:31:42.235Z,7.05
2023-02-15T08:34:12.619Z,6.43
2023-02-15T08:36:42.904Z,7.30
2023-02-15T08:39:11.487Z,7.23
2023-02-15T08:41:42.128Z,7.60
2023-02-15T08:44:11.968Z,7.53
2023-02-15T08:46:42.862Z,7.82
2023-02-15T08:49:12.797Z,7.03
2023-02-15T08:51:43.114Z,7.63
2023-02-15T08:54:15.853Z,8.07
2023-02-15T08:56:46.646Z,8.05
2023-02-15T08:59:17.545Z,8.65
2023-02-15T09:01:46.845Z,8.02
2023-02-15T09:04:17.079Z,8.82
2023-02-15T09:06:49.177Z,8.50
2023-02-15T09:09:19.303Z,8.98
2023-02-15T09:11:49.829Z,10.13
2023-02-15T09:14:21.315Z,9.25
2023-02-15T09:16:52.826Z,9.48
2023-02-15T09:19:24.309Z,8.98
2023-02-15T09:21:54.691Z,9.52
2023-02-15T09:24:23.264Z,7.85
2023-02-15T09:26:51.931Z,8.32
2023-02-15T09:29:21.511Z,8.75
2023-02-15T09:31:52.085Z,9.80
2023-02-15T09:34:22.744Z,10.77
2023-02-15T09:36:53.491Z,10.20
2023-02-15T09:39:24.842Z,10.48
2023-02-15T09:42:26.504Z,10.43
2023-02-15T09:45:09.572Z,10.55
2023-02-15T09:48:04.913Z,11.05
2023-02-15T09:50:44.730Z,11.20
2023-02-15T09:53:31.899Z,11.15
2023-02-15T09:56:09.535Z,11.30
2023-02-15T09:58:48.955Z,12.60
2023-02-15T10:01:26.156Z,12.15
2023-02-15T10:04:05.487Z,12.38
2023-02-15T10:06:45.534Z,11.95
2023-02-15T10:09:29.048Z,11.05
2023-02-15T10:12:15.295Z,10.65
2023-02-15T10:15:11.054Z,10.23
2023-02-15T10:17:55.751Z,9.43
2023-02-15T10:20:33.011Z,8.68
2023-02-15T10:23:19.075Z,8.65
2023-02-15T10:26:00.920Z,7.03
2023-02-15T10:28:42.264Z,7.63
2023-02-15T10:33:46.946Z,8.43
2023-02-15T10:36:30.556Z,9.50
2023-02-15T10:39:08.887Z,10.13
2023-02-15T10:41:48.793Z,9.25
2023-02-15T10:44:38.956Z,9.13
2023-02-15T10:47:26.494Z,8.85
2023-02-15T10:50:11.829Z,9.98
2023-02-15T10:52:55.751Z,9.88
2023-02-15T10:55:38.727Z,9.88
2023-02-15T10:58:19.472Z,8.98
2023-02-15T11:00:59.666Z,8.82
2023-02-15T11:03:50.472Z,9.53
2023-02-15T11:06:21.875Z,10.70
2023-02-15T11:08:56.195Z,10.57
2023-02-15T11:11:30.888Z,9.35
2023-02-15T11:14:05.605Z,8.93
2023-02-15T11:16:39.163Z,9.20
2023-02-15T11:19:13.872Z,8.60
2023-02-15T11:21:46.312Z,9.75
2023-02-15T11:24:19.438Z,10.32
2023-02-15T11:26:54.194Z,10.18
2023-02-15T11:29:31.137Z,9.68
2023-02-15T11:32:03.899Z,9.80
2023-02-15T11:34:37.595Z,10.07
2023-02-15T11:37:12.681Z,10.80
2023-02-15T11:39:42.575Z,9.70
2023-02-15T11:42:16.680Z,11.23
2023-02-15T11:45:04.430Z,12.43
2023-02-15T11:47:33.234Z,11.20
2023-02-15T11:50:02.443Z,12.52
2023-02-15T11:52:31.195Z,11.38
2023-02-15T11:54:59.973Z,12.40
2023-02-15T11:57:36.836Z,12.73
2023-02-15T12:00:17.196Z,12.65
2023-02-15T12:02:51.874Z,14.75
2023-02-15T12:05:24.297Z,14.38
2023-02-15T12:07:57.241Z,14.50
2023-02-15T12:10:29.582Z,14.07
2023-02-15T12:13:13.336Z,15.45
2023-02-15T12:15:50.052Z,16.05
2023-02-15T12:18:23.935Z,14.68
2023-02-15T12:20:52.959Z,14.77
2023-02-15T12:23:22.841Z,15.57
2023-02-15T12:25:55.799Z,15.98
2023-02-15T12:28:31.590Z,16.33
2023-02-15T12:31:04.303Z,17.08
2023-02-15T12:33:37.155Z,15.38
2023-02-15T12:36:19.739Z,16.75
2023-02-15T12:39:20.639Z,18.10
2023-02-15T12:42:02.309Z,20.35
2023-02-15T12:44:32.931Z,13.45
2023-02-15T12:47:07.159Z,12.35
2023-02-15T12:49:38.280Z,15.52
2023-02-15T12:52:09.214Z,16.10
2023-02-15T12:54:41.316Z,17.63
2023-02-15T12:57:24.068Z,18.90
2023-02-15T12:59:55.022Z,17.55
2023-02-15T13:02:47.826Z,17.80
2023-02-15T13:05:27.362Z,17.25
2023-02-15T13:07:59.335Z,71.60
2023-02-15T13:10:30.734Z,17.17
2023-02-15T13:13:00.030Z,18.30
2023-02-15T13:15:36.536Z,20.63
2023-02-15T13:18:13.588Z,18.58
2023-02-15T13:20:46.288Z,15.00
2023-02-15T13:23:30.216Z,17.52
2023-02-15T13:26:02.431Z,13.55
2023-02-15T13:28:45.094Z,12.73
2023-02-15T13:31:18.552Z,13.35
2023-02-15T13:33:53.371Z,13.40
2023-02-15T13:36:28.632Z,13.20
2023-02-15T13:39:10.775Z,12.85
2023-02-15T13:41:55.169Z,13.25
2023-02-15T13:44:48.245Z,15.43
2023-02-15T13:47:25.708Z,11.65
2023-02-15T13:50:13.483Z,12.00
2023-02-15T13:52:48.864Z,10.82
2023-02-15T13:55:40.581Z,11.30
2023-02-15T13:58:34.454Z,10.27
2023-02-15T14:01:12.246Z,11.02
2023-02-15T14:04:04.707Z,9.20
2023-02-15T14:07:11.668Z,8.85
2023-02-15T14:09:58.324Z,8.02
2023-02-15T14:12:43.737Z,9.15
2023-02-15T14:15:27.081Z,7.18
2023-02-15T14:18:06.795Z,7.30
2023-02-15T14:20:47.412Z,11.13
2023-02-15T14:23:31.144Z,8.48
2023-02-15T14:26:07.617Z,8.80
2023-02-15T14:28:48.993Z,9.27
2023-02-15T14:31:29.446Z,7.57
2023-02-15T14:34:00.041Z,8.05
2023-02-15T14:36:32.286Z,6.55
2023-02-15T14:39:32.664Z,6.57
2023-02-15T14:42:11.909Z,5.55
2023-02-15T14:44:45.787Z,4.97
2023-02-15T14:47:21.012Z,5.57
2023-02-15T14:49:49.681Z,5.53
2023-02-15T14:52:18.205Z,4.85
2023-02-15T14:55:00.857Z,5.65
2023-02-15T14:57:36.256Z,5.70
2023-02-15T15:00:34.760Z,6.30
2023-02-15T15:03:03.708Z,5.22
2023-02-15T15:05:36.761Z,6.43
2023-02-15T15:08:07.384Z,6.22
2023-02-15T15:10:43.129Z,5.90
2023-02-15T15:13:54.964Z,6.63
2023-02-15T15:16:33.097Z,6.30
2023-02-15T15:19:04.418Z,6.32
2023-02-15T15:21:55.536Z,5.88
2023-02-15T15:24:55.151Z,6.53
2023-02-15T15:27:44.403Z,6.60
2023-02-15T15:31:02.225Z,6.75
2023-02-15T15:33:57.629Z,7.20
2023-02-15T15:36:48.083Z,6.97
2023-02-15T15:39:37.456Z,7.63
2023-02-15T15:42:15.418Z,6.63
2023-02-15T15:45:06.598Z,6.78
2023-02-15T15:47:56.130Z,5.93
2023-02-15T15:50:36.071Z,6.25
2023-02-15T15:53:05.973Z,5.45
2023-02-15T15:55:36.907Z,5.07
2023-02-15T15:58:09.350Z,4.03
2023-02-15T16:00:41.895Z,4.38
2023-02-15T16:03:17.272Z,5.90
2023-02-15T16:05:47.266Z,6.25
2023-02-15T16:08:16.775Z,6.18
2023-02-15T16:10:45.332Z,4.78
2023-02-15T16:13:17.072Z,4.88
2023-02-15T16:15:50.854Z,3.65
2023-02-15T16:18:21.571Z,3.65
2023-02-15T16:20:56.754Z,3.00
2023-02-15T16:24:10.852Z,2.70
2023-02-15T16:27:10.548Z,2.88
2023-02-15T16:29:39.159Z,3.47
2023-02-15T16:32:18.473Z,3.40
2023-02-15T16:34:57.511Z,3.72
2023-02-15T16:37:29.367Z,3.40
2023-02-15T16:39:58.219Z,3.90
2023-02-15T16:42:27.427Z,3.88
2023-02-15T16:45:09.752Z,4.30
2023-02-15T16:47:42.507Z,3.28
2023-02-15T16:50:20.149Z,3.30
2023-02-15T16:52:50.490Z,3.92
2023-02-15T16:55:24.738Z,3.92
2023-02-15T16:57:57.215Z,3.90
2023-02-15T17:00:30.167Z,4.40
2023-02-15T17:03:02.324Z,4.70
2023-02-15T17:05:34.863Z,5.13
2023-02-15T17:08:17.133Z,4.13
2023-02-15T17:11:02.945Z,5.32
2023-02-15T17:13:31.745Z,4.80
2023-02-15T17:16:29.688Z,4.32
2023-02-15T17:18:59.994Z,4.82
2023-02-15T17:21:33.013Z,4.87
2023-02-15T17:24:05.377Z,4.63
2023-02-15T17:26:36.383Z,5.10
2023-02-15T17:31:41.380Z,3.47
2023-02-15T17:34:45.046Z,3.92
2023-02-15T17:37:15.373Z,4.00
2023-02-15T17:39:45.374Z,3.20
2023-02-15T17:42:13.821Z,3.58
2023-02-15T17:44:42.254Z,3.30
2023-02-15T17:47:16.335Z,3.17
2023-02-15T17:49:45.066Z,2.55
2023-02-15T17:52:15.111Z,3.47
2023-02-15T17:55:02.975Z,2.70
2023-02-15T17:57:32.236Z,2.90
2023-02-15T18:00:17.856Z,3.08
2023-02-15T18:03:05.442Z,3.05
2023-02-15T18:05:51.595Z,2.67
2023-02-15T18:08:42.980Z,2.63
2023-02-15T18:11:30.261Z,2.45
2023-02-15T18:14:01.581Z,2.65
2023-02-15T18:16:33.620Z,2.50
2023-02-15T18:19:04.756Z,3.20
2023-02-15T18:21:34.230Z,2.75
2023-02-15T18:24:02.701Z,2.83
2023-02-15T18:26:32.983Z,2.75
2023-02-15T18:29:01.521Z,2.85
2023-02-15T18:31:30.229Z,3.58
2023-02-15T18:34:01.025Z,3.67
2023-02-15T18:36:32.891Z,3.33
2023-02-15T18:39:08.450Z,3.40
2023-02-15T18:41:39.058Z,3.83
2023-02-15T18:44:13.198Z,4.10
2023-02-15T18:46:41.677Z,3.75
2023-02-15T18:49:10.141Z,3.75
2023-02-15T18:51:40.460Z,3.95
2023-02-15T18:54:18.491Z,4.60
2023-02-15T18:56:53.680Z,4.68
2023-02-15T18:59:23.837Z,4.80
2023-02-15T19:01:52.315Z,4.60
2023-02-15T19:04:21.199Z,4.55
2023-02-15T19:06:51.250Z,5.70
2023-02-15T19:09:22.156Z,4.75
2023-02-15T19:11:55.269Z,4.30
2023-02-15T19:14:29.018Z,4.80
2023-02-15T19:16:58.374Z,5.10
2023-02-15T19:19:27.663Z,6.00
2023-02-15T19:21:57.118Z,5.75
2023-02-15T19:24:35.146Z,4.97
2023-02-15T19:27:05.666Z,5.43
2023-02-15T19:29:35.314Z,4.97
2023-02-15T19:32:04.333Z,6.10
2023-02-15T19:34:33.207Z,5.22
2023-02-15T19:37:01.789Z,5.82
2023-02-15T19:39:40.829Z,5.45
2023-02-15T19:42:15.896Z,5.57
2023-02-15T19:44:44.652Z,6.00
2023-02-15T19:47:14.905Z,6.07
2023-02-15T19:49:43.768Z,6.55
2023-02-15T19:52:17.994Z,6.22
2023-02-15T19:54:47.585Z,6.68
2023-02-15T19:57:17.889Z,6.65
2023-02-15T19:59:46.692Z,6.60
2023-02-15T20:02:16.070Z,5.57
2023-02-15T20:04:45.841Z,6.72
2023-02-15T20:07:21.283Z,6.57
2023-02-15T20:09:50.136Z,7.47
2023-02-15T20:12:24.408Z,8.50
2023-02-15T20:14:53.955Z,7.70
2023-02-15T20:17:22.800Z,8.07
2023-02-15T20:19:51.310Z,8.88
2023-02-15T20:22:24.809Z,8.43
2023-02-15T20:24:55.718Z,8.68
2023-02-15T20:27:26.704Z,7.45
2023-02-15T20:29:57.039Z,6.97
2023-02-15T20:32:26.055Z,7.22
2023-02-15T20:34:54.876Z,6.97
2023-02-15T20:37:26.651Z,7.55
2023-02-15T20:39:55.669Z,6.85
2023-02-15T20:42:25.950Z,8.48
2023-02-15T20:44:54.552Z,8.57
2023-02-15T20:47:23.096Z,8.00
2023-02-15T20:49:52.990Z,7.40
2023-02-15T20:52:22.448Z,7.65
2023-02-15T20:54:51.119Z,8.13
2023-02-15T20:57:19.788Z,8.65
2023-02-15T20:59:50.206Z,8.48
2023-02-15T21:02:23.150Z,8.73
2023-02-15T21:04:52.180Z,8.02
2023-02-15T21:07:22.590Z,9.02
2023-02-15T21:09:52.579Z,9.00
2023-02-15T21:12:22.568Z,7.63
2023-02-15T21:14:52.856Z,8.98
2023-02-15T21:17:21.673Z,8.30
2023-02-15T21:19:50.571Z,10.02
2023-02-15T21:22:21.818Z,10.57
2023-02-15T21:24:53.735Z,10.50
2023-02-15T21:27:23.572Z,10.23
2023-02-15T21:29:54.000Z,11.15
2023-02-15T21:32:22.863Z,13.15
2023-02-15T21:34:57.310Z,11.93
2023-02-15T21:37:33.195Z,14.20
2023-02-15T21:40:03.015Z,12.18
2023-02-15T21:42:51.152Z,12.02
2023-02-15T21:45:41.337Z,13.20
2023-02-15T21:48:10.633Z,12.80
2023-02-15T21:50:57.014Z,12.82
2023-02-15T21:53:28.607Z,12.00
2023-02-15T21:55:59.735Z,11.88
2023-02-15T21:58:30.499Z,13.70
2023-02-15T22:01:03.174Z,12.48
2023-02-15T22:03:36.935Z,12.63
2023-02-15T22:06:06.707Z,11.57
2023-02-15T22:08:37.751Z,13.98
2023-02-15T22:11:12.810Z,12.40
2023-02-15T22:13:42.211Z,11.45
2023-02-15T22:16:17.889Z,11.43
2023-02-15T22:18:49.972Z,11.82
2023-02-15T22:21:19.429Z,10.65
2023-02-15T22:23:48.649Z,11.45
2023-02-15T22:26:24.096Z,11.65
2023-02-15T22:28:53.130Z,10.77
2023-02-15T22:31:24.878Z,10.77
2023-02-15T22:33:55.135Z,12.05
2023-02-15T22:36:26.651Z,9.73
2023-02-15T22:38:58.292Z,10.75
2023-02-15T22:41:29.288Z,10.57
2023-02-15T22:44:01.269Z,9.93
2023-02-15T22:46:31.725Z,10.68
2023-02-15T22:49:00.385Z,9.07
2023-02-15T22:51:29.121Z,10.05
2023-02-15T22:53:58.044Z,9.45
2023-02-15T22:56:31.342Z,8.75
2023-02-15T22:59:03.664Z,9.10
2023-02-15T23:01:35.516Z,10.10
2023-02-15T23:04:04.731Z,9.43
2023-02-15T23:06:36.140Z,9.05
2023-02-15T23:09:07.641Z,8.93
2023-02-15T23:11:36.463Z,8.55
2023-02-15T23:14:05.018Z,8.75
2023-02-15T23:16:35.905Z,8.60
2023-02-15T23:19:04.706Z,7.60
2023-02-15T23:21:35.237Z,7.75
2023-02-15T23:24:17.132Z,9.20
2023-02-15T23:26:45.871Z,8.30
2023-02-15T23:29:16.345Z,7.43
2023-02-15T23:31:48.302Z,8.23
2023-02-15T23:34:18.862Z,7.53
2023-02-15T23:36:47.529Z,7.75
2023-02-15T23:39:34.979Z,7.50
2023-02-15T23:42:06.460Z,7.53
2023-02-15T23:44:35.757Z,8.20
2023-02-15T23:47:06.328Z,7.60
2023-02-15T23:49:34.997Z,7.72
2023-02-15T23:52:03.758Z,7.43
2023-02-15T23:54:32.390Z,7.43
2023-02-15T23:57:03.059Z,7.93
2023-02-15T23:59:33.771Z,6.60
